sensor_id;sensor_type;location;lat;lon;timestamp;temperature;humidity
27900;DHT22;15243;50.726;7.080;2023-04-25T03:24:39;5.70;99.90
27900;DHT22;15243;50.726;7.080;2023-04-25T03:27:06;5.60;99.90
27900;DHT22;15243;50.726;7.080;2023-04-25T03:29:33;5.60;99.90
27900;DHT22;15243;50.726;7.080;2023-04-25T03:32:00;5.60;99.90
27900;DHT22;15243;50.726;7.080;2023-04-25T03:34:27;5.60;99.90
27900;DHT22;15243;50.726;7.080;2023-04-25T03:36:55;5.60;99.90
27900;DHT22;15243;50.726;7.080;2023-04-25T03:39:22;5.80;99.90
27900;DHT22;15243;50.726;7.080;2023-04-25T03:41:49;5.80;99.90
27900;DHT22;15243;50.726;7.080;2023-04-25T03:44:16;5.80;99.90
27900;DHT22;15243;50.726;7.080;2023-04-25T03:46:43;5.80;99.90
27900;DHT22;15243;50.726;7.080;2023-04-25T03:49:10;5.90;99.90
27900;DHT22;15243;50.726;7.080;2023-04-25T03:51:37;5.90;99.90
27900;DHT22;15243;50.726;7.080;2023-04-25T03:54:04;5.90;99.90
27900;DHT22;15243;50.726;7.080;2023-04-25T03:56:31;5.80;99.90
27900;DHT22;15243;50.726;7.080;2023-04-25T03:58:58;5.80;99.90
27900;DHT22;15243;50.726;7.080;2023-04-25T04:01:25;5.80;99.90
27900;DHT22;15243;50.726;7.080;2023-04-25T04:03:52;5.90;99.90
27900;DHT22;15243;50.726;7.080;2023-04-25T04:06:20;5.90;99.90
27900;DHT22;15243;50.726;7.080;2023-04-25T04:08:47;5.90;99.90
27900;DHT22;15243;50.726;7.080;2023-04-25T04:11:14;5.90;99.90
27900;DHT22;15243;50.726;7.080;2023-04-25T04:13:41;6.00;99.90
27900;DHT22;15243;50.726;7.080;2023-04-25T04:16:09;6.00;99.90
27900;DHT22;15243;50.726;7.080;2023-04-25T04:18:36;6.00;99.90
27900;DHT22;15243;50.726;7.080;2023-04-25T04:21:03;6.10;99.90
27900;DHT22;15243;50.726;7.080;2023-04-25T04:23:30;6.10;99.90
27900;DHT22;15243;50.726;7.080;2023-04-25T04:25:57;6.10;99.90
27900;DHT22;15243;50.726;7.080;2023-04-25T04:28:25;6.10;99.90
27900;DHT22;15243;50.726;7.080;2023-04-25T04:30:53;6.00;99.90
27900;DHT22;15243;50.726;7.080;2023-04-25T04:33:20;6.20;99.90
27900;DHT22;15243;50.726;7.080;2023-04-25T04:35:47;6.10;99.90
27900;DHT22;15243;50.726;7.080;2023-04-25T04:38:15;6.20;99.90
27900;DHT22;15243;50.726;7.080;2023-04-25T04:40:42;6.20;99.90
27900;DHT22;15243;50.726;7.080;2023-04-25T04:43:09;6.20;99.90
27900;DHT22;15243;50.726;7.080;2023-04-25T04:45:37;6.20;99.90
27900;DHT22;15243;50.726;7.080;2023-04-25T04:48:07;6.30;99.90
27900;DHT22;15243;50.726;7.080;2023-04-25T04:50:33;6.30;99.90
27900;DHT22;15243;50.726;7.080;2023-04-25T04:53:04;6.20;99.90
27900;DHT22;15243;50.726;7.080;2023-04-25T04:55:31;6.20;99.90
27900;DHT22;15243;50.726;7.080;2023-04-25T04:57:58;6.30;99.90
27900;DHT22;15243;50.726;7.080;2023-04-25T05:00:25;6.30;99.90
27900;DHT22;15243;50.726;7.080;2023-04-25T05:02:55;6.40;99.90
27900;DHT22;15243;50.726;7.080;2023-04-25T05:05:23;6.30;99.90
27900;DHT22;15243;50.726;7.080;2023-04-25T05:07:53;6.40;99.90
27900;DHT22;15243;50.726;7.080;2023-04-25T05:10:20;6.30;99.90
27900;DHT22;15243;50.726;7.080;2023-04-25T05:12:48;6.40;99.90
27900;DHT22;15243;50.726;7.080;2023-04-25T05:15:16;6.30;99.90
27900;DHT22;15243;50.726;7.080;2023-04-25T05:17:43;6.40;99.90
27900;DHT22;15243;50.726;7.080;2023-04-25T05:20:10;6.40;99.90
27900;DHT22;15243;50.726;7.080;2023-04-25T05:22:37;6.50;99.90
27900;DHT22;15243;50.726;7.080;2023-04-25T05:25:04;6.40;99.90
27900;DHT22;15243;50.726;7.080;2023-04-25T05:27:32;6.40;99.90
27900;DHT22;15243;50.726;7.080;2023-04-25T05:29:59;6.40;99.90
27900;DHT22;15243;50.726;7.080;2023-04-25T05:32:26;6.50;99.90
27900;DHT22;15243;50.726;7.080;2023-04-25T05:34:54;6.50;99.90
27900;DHT22;15243;50.726;7.080;2023-04-25T05:37:21;6.50;99.90
27900;DHT22;15243;50.726;7.080;2023-04-25T05:39:49;6.50;99.90
27900;DHT22;15243;50.726;7.080;2023-04-25T05:42:16;6.50;99.90
27900;DHT22;15243;50.726;7.080;2023-04-25T05:44:44;6.50;99.90
27900;DHT22;15243;50.726;7.080;2023-04-25T05:47:11;6.50;99.90
27900;DHT22;15243;50.726;7.080;2023-04-25T05:49:37;6.60;99.90
27900;DHT22;15243;50.726;7.080;2023-04-25T05:52:05;6.60;99.90
27900;DHT22;15243;50.726;7.080;2023-04-25T05:54:32;6.60;99.90
27900;DHT22;15243;50.726;7.080;2023-04-25T05:57:01;6.60;99.90
27900;DHT22;15243;50.726;7.080;2023-04-25T05:59:29;6.60;99.90
27900;DHT22;15243;50.726;7.080;2023-04-25T06:01:56;6.70;99.90
27900;DHT22;15243;50.726;7.080;2023-04-25T06:04:23;6.80;99.90
27900;DHT22;15243;50.726;7.080;2023-04-25T06:06:52;6.80;99.90
27900;DHT22;15243;50.726;7.080;2023-04-25T06:09:19;6.90;99.90
27900;DHT22;15243;50.726;7.080;2023-04-25T06:11:46;6.80;99.90
27900;DHT22;15243;50.726;7.080;2023-04-25T06:14:15;6.90;99.90
27900;DHT22;15243;50.726;7.080;2023-04-25T06:16:42;7.00;99.90
27900;DHT22;15243;50.726;7.080;2023-04-25T06:19:09;7.10;99.90
27900;DHT22;15243;50.726;7.080;2023-04-25T06:21:36;7.10;99.90
27900;DHT22;15243;50.726;7.080;2023-04-25T06:24:03;7.00;99.90
27900;DHT22;15243;50.726;7.080;2023-04-25T06:26:31;7.30;99.90
27900;DHT22;15243;50.726;7.080;2023-04-25T06:28:58;7.40;99.90
27900;DHT22;15243;50.726;7.080;2023-04-25T06:31:25;7.30;99.90
27900;DHT22;15243;50.726;7.080;2023-04-25T06:33:52;7.40;99.90
27900;DHT22;15243;50.726;7.080;2023-04-25T06:36:21;7.50;99.90
27900;DHT22;15243;50.726;7.080;2023-04-25T06:38:52;7.40;99.90
27900;DHT22;15243;50.726;7.080;2023-04-25T06:41:20;7.10;99.90
27900;DHT22;15243;50.726;7.080;2023-04-25T06:43:47;7.30;99.90
27900;DHT22;15243;50.726;7.080;2023-04-25T06:46:14;7.20;99.90
27900;DHT22;15243;50.726;7.080;2023-04-25T06:48:41;7.40;99.90
27900;DHT22;15243;50.726;7.080;2023-04-25T06:51:08;7.50;99.90
27900;DHT22;15243;50.726;7.080;2023-04-25T06:53:39;7.50;99.90
27900;DHT22;15243;50.726;7.080;2023-04-25T06:56:06;7.50;99.90
27900;DHT22;15243;50.726;7.080;2023-04-25T06:58:33;7.50;99.90
27900;DHT22;15243;50.726;7.080;2023-04-25T07:01:00;7.90;99.90
27900;DHT22;15243;50.726;7.080;2023-04-25T07:03:27;8.00;99.90
27900;DHT22;15243;50.726;7.080;2023-04-25T07:05:54;8.10;99.90
27900;DHT22;15243;50.726;7.080;2023-04-25T07:08:21;8.20;99.90
27900;DHT22;15243;50.726;7.080;2023-04-25T07:10:48;8.20;99.90
27900;DHT22;15243;50.726;7.080;2023-04-25T07:13:15;8.30;99.90
27900;DHT22;15243;50.726;7.080;2023-04-25T07:15:43;8.40;99.90
27900;DHT22;15243;50.726;7.080;2023-04-25T07:18:10;8.30;99.90
27900;DHT22;15243;50.726;7.080;2023-04-25T07:20:38;8.20;99.90
27900;DHT22;15243;50.726;7.080;2023-04-25T07:23:05;8.00;99.90
27900;DHT22;15243;50.726;7.080;2023-04-25T07:25:32;8.20;99.90
27900;DHT22;15243;50.726;7.080;2023-04-25T07:27:59;8.20;99.90
27900;DHT22;15243;50.726;7.080;2023-04-25T07:30:26;8.60;99.90
27900;DHT22;15243;50.726;7.080;2023-04-25T07:32:54;8.70;99.90
27900;DHT22;15243;50.726;7.080;2023-04-25T07:35:21;8.90;99.90
27900;DHT22;15243;50.726;7.080;2023-04-25T07:37:48;8.90;79.50
27900;DHT22;15243;50.726;7.080;2023-04-25T07:40:15;8.90;89.80
27900;DHT22;15243;50.726;7.080;2023-04-25T07:42:43;8.80;97.10
27900;DHT22;15243;50.726;7.080;2023-04-25T07:45:10;8.80;50.80
27900;DHT22;15243;50.726;7.080;2023-04-25T07:47:37;8.40;69.60
27900;DHT22;15243;50.726;7.080;2023-04-25T07:50:05;8.60;41.90
27900;DHT22;15243;50.726;7.080;2023-04-25T07:52:32;8.50;52.20
27900;DHT22;15243;50.726;7.080;2023-04-25T07:54:59;8.60;36.90
27900;DHT22;15243;50.726;7.080;2023-04-25T07:57:29;8.70;8.00
27900;DHT22;15243;50.726;7.080;2023-04-25T07:59:56;9.00;1.00
27900;DHT22;15243;50.726;7.080;2023-04-25T08:02:24;9.10;1.00
27900;DHT22;15243;50.726;7.080;2023-04-25T08:04:53;9.20;1.00
27900;DHT22;15243;50.726;7.080;2023-04-25T08:07:20;9.40;1.00
27900;DHT22;15243;50.726;7.080;2023-04-25T08:09:47;9.40;1.00
27900;DHT22;15243;50.726;7.080;2023-04-25T08:12:14;9.60;1.00
27900;DHT22;15243;50.726;7.080;2023-04-25T08:14:41;9.50;1.00
27900;DHT22;15243;50.726;7.080;2023-04-25T08:17:08;9.20;6.70
27900;DHT22;15243;50.726;7.080;2023-04-25T08:19:35;9.20;2.40
27900;DHT22;15243;50.726;7.080;2023-04-25T08:22:02;9.00;30.60
27900;DHT22;15243;50.726;7.080;2023-04-25T08:24:30;8.80;1.00
27900;DHT22;15243;50.726;7.080;2023-04-25T08:26:57;8.90;1.00
27900;DHT22;15243;50.726;7.080;2023-04-25T08:29:25;9.00;1.00
27900;DHT22;15243;50.726;7.080;2023-04-25T08:31:52;9.10;1.00
27900;DHT22;15243;50.726;7.080;2023-04-25T08:34:19;8.90;1.00
27900;DHT22;15243;50.726;7.080;2023-04-25T08:36:47;8.80;1.00
27900;DHT22;15243;50.726;7.080;2023-04-25T08:39:14;8.80;1.00
27900;DHT22;15243;50.726;7.080;2023-04-25T08:41:41;8.70;1.00
27900;DHT22;15243;50.726;7.080;2023-04-25T08:44:10;8.70;1.00
27900;DHT22;15243;50.726;7.080;2023-04-25T08:46:40;8.60;1.00
27900;DHT22;15243;50.726;7.080;2023-04-25T08:49:08;8.60;4.20
27900;DHT22;15243;50.726;7.080;2023-04-25T08:51:40;8.70;1.00
27900;DHT22;15243;50.726;7.080;2023-04-25T08:54:12;8.70;3.70
27900;DHT22;15243;50.726;7.080;2023-04-25T08:57:03;8.70;6.40
27900;DHT22;15243;50.726;7.080;2023-04-25T08:59:32;9.00;1.00
27900;DHT22;15243;50.726;7.080;2023-04-25T09:02:00;8.90;1.00
27900;DHT22;15243;50.726;7.080;2023-04-25T09:04:28;9.10;1.00
27900;DHT22;15243;50.726;7.080;2023-04-25T09:06:57;9.40;1.00
27900;DHT22;15243;50.726;7.080;2023-04-25T09:09:29;9.50;1.00
27900;DHT22;15243;50.726;7.080;2023-04-25T09:11:56;9.60;1.00
27900;DHT22;15243;50.726;7.080;2023-04-25T09:14:23;10.00;1.00
27900;DHT22;15243;50.726;7.080;2023-04-25T09:19:23;10.00;1.00
27900;DHT22;15243;50.726;7.080;2023-04-25T09:22:05;10.10;1.00
27900;DHT22;15243;50.726;7.080;2023-04-25T09:24:45;10.00;1.00
27900;DHT22;15243;50.726;7.080;2023-04-25T09:27:19;10.00;1.00
27900;DHT22;15243;50.726;7.080;2023-04-25T09:29:47;10.20;1.00
27900;DHT22;15243;50.726;7.080;2023-04-25T09:32:22;10.00;1.00
27900;DHT22;15243;50.726;7.080;2023-04-25T09:34:59;10.00;1.00
27900;DHT22;15243;50.726;7.080;2023-04-25T09:37:29;9.60;1.00
27900;DHT22;15243;50.726;7.080;2023-04-25T09:39:59;9.20;1.00
27900;DHT22;15243;50.726;7.080;2023-04-25T09:42:30;9.00;1.00
27900;DHT22;15243;50.726;7.080;2023-04-25T09:44:59;9.00;1.00
27900;DHT22;15243;50.726;7.080;2023-04-25T09:47:29;9.30;1.00
27900;DHT22;15243;50.726;7.080;2023-04-25T09:49:56;9.50;1.00
27900;DHT22;15243;50.726;7.080;2023-04-25T09:52:24;9.50;99.90
27900;DHT22;15243;50.726;7.080;2023-04-25T09:54:52;9.70;99.90
27900;DHT22;15243;50.726;7.080;2023-04-25T09:57:23;10.00;99.90
27900;DHT22;15243;50.726;7.080;2023-04-25T09:59:54;10.30;99.90
27900;DHT22;15243;50.726;7.080;2023-04-25T10:02:25;10.50;1.00
27900;DHT22;15243;50.726;7.080;2023-04-25T10:04:56;10.60;1.00
27900;DHT22;15243;50.726;7.080;2023-04-25T10:07:25;10.70;1.00
27900;DHT22;15243;50.726;7.080;2023-04-25T10:09:58;10.60;1.00
27900;DHT22;15243;50.726;7.080;2023-04-25T10:12:27;10.70;99.90
27900;DHT22;15243;50.726;7.080;2023-04-25T10:14:55;10.60;1.00
27900;DHT22;15243;50.726;7.080;2023-04-25T10:17:23;10.30;1.00
27900;DHT22;15243;50.726;7.080;2023-04-25T10:19:51;10.40;1.00
27900;DHT22;15243;50.726;7.080;2023-04-25T10:22:26;10.40;1.00
27900;DHT22;15243;50.726;7.080;2023-04-25T10:24:55;10.50;99.90
27900;DHT22;15243;50.726;7.080;2023-04-25T10:27:23;10.30;99.90
27900;DHT22;15243;50.726;7.080;2023-04-25T10:30:13;10.30;99.90
27900;DHT22;15243;50.726;7.080;2023-04-25T10:32:45;10.00;99.90
27900;DHT22;15243;50.726;7.080;2023-04-25T10:35:19;10.30;1.00
27900;DHT22;15243;50.726;7.080;2023-04-25T10:38:03;10.20;99.90
27900;DHT22;15243;50.726;7.080;2023-04-25T10:40:34;10.40;99.90
27900;DHT22;15243;50.726;7.080;2023-04-25T10:46:23;9.90;1.00
27900;DHT22;15243;50.726;7.080;2023-04-25T10:49:01;10.40;1.00
27900;DHT22;15243;50.726;7.080;2023-04-25T10:51:34;10.30;1.00
27900;DHT22;15243;50.726;7.080;2023-04-25T10:54:22;9.80;1.00
27900;DHT22;15243;50.726;7.080;2023-04-25T10:56:50;9.80;1.00
27900;DHT22;15243;50.726;7.080;2023-04-25T10:59:19;9.60;1.00
27900;DHT22;15243;50.726;7.080;2023-04-25T11:01:52;9.50;1.00
27900;DHT22;15243;50.726;7.080;2023-04-25T11:04:23;9.60;1.00
27900;DHT22;15243;50.726;7.080;2023-04-25T11:07:26;9.60;1.00
27900;DHT22;15243;50.726;7.080;2023-04-25T11:09:57;9.70;1.00
27900;DHT22;15243;50.726;7.080;2023-04-25T11:12:30;9.80;1.00
27900;DHT22;15243;50.726;7.080;2023-04-25T11:15:06;10.10;1.00
27900;DHT22;15243;50.726;7.080;2023-04-25T11:17:35;10.80;1.00
27900;DHT22;15243;50.726;7.080;2023-04-25T11:20:04;11.40;99.90
27900;DHT22;15243;50.726;7.080;2023-04-25T11:22:38;11.90;99.90
27900;DHT22;15243;50.726;7.080;2023-04-25T11:25:08;11.70;99.90
27900;DHT22;15243;50.726;7.080;2023-04-25T11:27:53;11.70;99.90
27900;DHT22;15243;50.726;7.080;2023-04-25T11:30:21;11.20;99.90
27900;DHT22;15243;50.726;7.080;2023-04-25T11:32:48;11.40;99.90
27900;DHT22;15243;50.726;7.080;2023-04-25T11:35:16;11.50;99.90
27900;DHT22;15243;50.726;7.080;2023-04-25T11:37:43;11.40;99.90
27900;DHT22;15243;50.726;7.080;2023-04-25T11:40:11;10.90;1.00
27900;DHT22;15243;50.726;7.080;2023-04-25T11:42:39;10.80;1.00
27900;DHT22;15243;50.726;7.080;2023-04-25T11:45:10;10.40;1.00
27900;DHT22;15243;50.726;7.080;2023-04-25T11:47:37;10.10;1.00
27900;DHT22;15243;50.726;7.080;2023-04-25T11:50:08;9.80;1.00
27900;DHT22;15243;50.726;7.080;2023-04-25T11:52:42;9.80;1.00
27900;DHT22;15243;50.726;7.080;2023-04-25T11:55:15;9.70;1.00
27900;DHT22;15243;50.726;7.080;2023-04-25T11:57:47;9.80;1.00
27900;DHT22;15243;50.726;7.080;2023-04-25T12:00:20;9.70;1.00
27900;DHT22;15243;50.726;7.080;2023-04-25T12:02:51;9.60;1.00
27900;DHT22;15243;50.726;7.080;2023-04-25T12:05:20;9.80;1.00
27900;DHT22;15243;50.726;7.080;2023-04-25T12:07:58;9.90;1.00
27900;DHT22;15243;50.726;7.080;2023-04-25T12:10:26;9.90;1.00
27900;DHT22;15243;50.726;7.080;2023-04-25T12:12:53;9.90;1.00
27900;DHT22;15243;50.726;7.080;2023-04-25T12:15:25;10.00;1.00
27900;DHT22;15243;50.726;7.080;2023-04-25T12:17:53;10.30;99.90
27900;DHT22;15243;50.726;7.080;2023-04-25T12:20:25;10.40;99.90
27900;DHT22;15243;50.726;7.080;2023-04-25T12:22:57;10.40;99.90
27900;DHT22;15243;50.726;7.080;2023-04-25T12:25:38;10.50;99.90
27900;DHT22;15243;50.726;7.080;2023-04-25T12:28:24;10.50;99.90
27900;DHT22;15243;50.726;7.080;2023-04-25T12:30:55;10.70;99.90
27900;DHT22;15243;50.726;7.080;2023-04-25T12:33:24;10.80;99.90
27900;DHT22;15243;50.726;7.080;2023-04-25T12:35:51;10.70;99.90
27900;DHT22;15243;50.726;7.080;2023-04-25T12:38:30;10.70;99.90
27900;DHT22;15243;50.726;7.080;2023-04-25T12:40:58;10.60;99.90
27900;DHT22;15243;50.726;7.080;2023-04-25T12:43:25;10.40;99.90
27900;DHT22;15243;50.726;7.080;2023-04-25T12:45:54;10.20;99.90
27900;DHT22;15243;50.726;7.080;2023-04-25T12:48:21;10.30;99.90
27900;DHT22;15243;50.726;7.080;2023-04-25T12:50:49;10.40;1.00
27900;DHT22;15243;50.726;7.080;2023-04-25T12:53:19;10.10;1.00
27900;DHT22;15243;50.726;7.080;2023-04-25T12:55:47;11.00;99.90
27900;DHT22;15243;50.726;7.080;2023-04-25T12:58:16;11.10;99.90
27900;DHT22;15243;50.726;7.080;2023-04-25T13:00:44;11.60;99.90
27900;DHT22;15243;50.726;7.080;2023-04-25T13:03:12;12.30;99.90
27900;DHT22;15243;50.726;7.080;2023-04-25T13:05:58;12.70;99.90
27900;DHT22;15243;50.726;7.080;2023-04-25T13:08:25;12.30;99.90
27900;DHT22;15243;50.726;7.080;2023-04-25T13:10:52;13.10;99.90
27900;DHT22;15243;50.726;7.080;2023-04-25T13:13:20;13.30;1.00
27900;DHT22;15243;50.726;7.080;2023-04-25T13:15:46;13.00;99.90
27900;DHT22;15243;50.726;7.080;2023-04-25T13:18:15;12.70;99.90
27900;DHT22;15243;50.726;7.080;2023-04-25T13:20:43;12.00;97.60
27900;DHT22;15243;50.726;7.080;2023-04-25T13:23:11;11.60;99.90
27900;DHT22;15243;50.726;7.080;2023-04-25T13:25:38;11.30;99.90
27900;DHT22;15243;50.726;7.080;2023-04-25T13:28:05;10.90;99.90
27900;DHT22;15243;50.726;7.080;2023-04-25T13:30:33;10.60;99.90
27900;DHT22;15243;50.726;7.080;2023-04-25T13:33:00;10.70;99.90
27900;DHT22;15243;50.726;7.080;2023-04-25T13:35:30;10.80;99.90
27900;DHT22;15243;50.726;7.080;2023-04-25T13:38:00;10.90;99.90
27900;DHT22;15243;50.726;7.080;2023-04-25T13:40:29;10.90;99.90
27900;DHT22;15243;50.726;7.080;2023-04-25T13:42:56;10.80;99.90
27900;DHT22;15243;50.726;7.080;2023-04-25T13:45:23;10.60;99.90
27900;DHT22;15243;50.726;7.080;2023-04-25T13:47:51;10.40;99.90
27900;DHT22;15243;50.726;7.080;2023-04-25T13:50:18;10.30;99.90
27900;DHT22;15243;50.726;7.080;2023-04-25T13:52:45;10.10;99.90
27900;DHT22;15243;50.726;7.080;2023-04-25T13:55:12;10.00;1.00
27900;DHT22;15243;50.726;7.080;2023-04-25T13:57:39;10.10;1.00
27900;DHT22;15243;50.726;7.080;2023-04-25T14:00:08;10.00;1.00
27900;DHT22;15243;50.726;7.080;2023-04-25T14:02:38;10.00;1.00
27900;DHT22;15243;50.726;7.080;2023-04-25T14:05:06;10.30;1.00
27900;DHT22;15243;50.726;7.080;2023-04-25T14:07:36;10.30;1.00
27900;DHT22;15243;50.726;7.080;2023-04-25T14:10:05;10.50;1.00
27900;DHT22;15243;50.726;7.080;2023-04-25T14:12:32;10.60;99.90
27900;DHT22;15243;50.726;7.080;2023-04-25T14:14:59;10.40;99.90
27900;DHT22;15243;50.726;7.080;2023-04-25T14:17:28;10.30;99.90
27900;DHT22;15243;50.726;7.080;2023-04-25T14:19:56;10.30;99.90
27900;DHT22;15243;50.726;7.080;2023-04-25T14:22:23;10.50;99.90
27900;DHT22;15243;50.726;7.080;2023-04-25T14:24:50;10.50;99.90
27900;DHT22;15243;50.726;7.080;2023-04-25T14:27:18;10.50;99.90
27900;DHT22;15243;50.726;7.080;2023-04-25T14:29:46;10.60;99.90
27900;DHT22;15243;50.726;7.080;2023-04-25T14:32:14;10.80;99.90
27900;DHT22;15243;50.726;7.080;2023-04-25T14:34:43;10.90;99.90
27900;DHT22;15243;50.726;7.080;2023-04-25T14:37:10;10.60;99.90
27900;DHT22;15243;50.726;7.080;2023-04-25T14:39:37;10.90;99.90
27900;DHT22;15243;50.726;7.080;2023-04-25T14:42:04;11.20;99.90
27900;DHT22;15243;50.726;7.080;2023-04-25T14:44:40;11.70;99.90
27900;DHT22;15243;50.726;7.080;2023-04-25T14:47:07;13.30;99.90
27900;DHT22;15243;50.726;7.080;2023-04-25T14:49:35;14.90;1.00
27900;DHT22;15243;50.726;7.080;2023-04-25T14:52:03;15.30;99.90
27900;DHT22;15243;50.726;7.080;2023-04-25T14:54:32;13.00;99.90
27900;DHT22;15243;50.726;7.080;2023-04-25T14:56:59;12.60;99.90
27900;DHT22;15243;50.726;7.080;2023-04-25T14:59:28;13.30;99.90
27900;DHT22;15243;50.726;7.080;2023-04-25T15:01:55;12.30;1.00
27900;DHT22;15243;50.726;7.080;2023-04-25T15:04:25;12.40;1.00
27900;DHT22;15243;50.726;7.080;2023-04-25T15:06:53;11.70;99.90
27900;DHT22;15243;50.726;7.080;2023-04-25T15:09:20;11.70;99.90
27900;DHT22;15243;50.726;7.080;2023-04-25T15:11:50;11.60;99.90
27900;DHT22;15243;50.726;7.080;2023-04-25T15:14:17;11.70;99.90
27900;DHT22;15243;50.726;7.080;2023-04-25T15:16:45;11.50;1.00
27900;DHT22;15243;50.726;7.080;2023-04-25T15:19:12;11.30;1.00
27900;DHT22;15243;50.726;7.080;2023-04-25T15:21:39;11.10;1.00
27900;DHT22;15243;50.726;7.080;2023-04-25T15:26:44;11.20;1.00
27900;DHT22;15243;50.726;7.080;2023-04-25T15:29:12;11.30;99.90
27900;DHT22;15243;50.726;7.080;2023-04-25T15:31:39;11.40;99.90
27900;DHT22;15243;50.726;7.080;2023-04-25T15:34:06;11.60;99.90
27900;DHT22;15243;50.726;7.080;2023-04-25T15:36:33;12.00;99.90
27900;DHT22;15243;50.726;7.080;2023-04-25T15:39:00;12.40;99.90
27900;DHT22;15243;50.726;7.080;2023-04-25T15:41:29;11.90;37.00
27900;DHT22;15243;50.726;7.080;2023-04-25T15:43:56;11.70;99.90
27900;DHT22;15243;50.726;7.080;2023-04-25T15:46:26;11.90;99.90
27900;DHT22;15243;50.726;7.080;2023-04-25T15:48:53;12.20;99.90
27900;DHT22;15243;50.726;7.080;2023-04-25T15:51:20;13.30;99.90
27900;DHT22;15243;50.726;7.080;2023-04-25T15:53:47;13.70;1.00
27900;DHT22;15243;50.726;7.080;2023-04-25T15:56:14;13.20;99.90
27900;DHT22;15243;50.726;7.080;2023-04-25T15:58:41;13.00;1.00
27900;DHT22;15243;50.726;7.080;2023-04-25T16:01:08;13.00;1.00
27900;DHT22;15243;50.726;7.080;2023-04-25T16:03:35;12.60;99.90
27900;DHT22;15243;50.726;7.080;2023-04-25T16:06:02;12.30;99.90
27900;DHT22;15243;50.726;7.080;2023-04-25T16:08:30;12.10;99.90
27900;DHT22;15243;50.726;7.080;2023-04-25T16:11:00;12.10;99.90
27900;DHT22;15243;50.726;7.080;2023-04-25T16:13:27;12.40;1.00
27900;DHT22;15243;50.726;7.080;2023-04-25T16:15:55;13.00;99.90
27900;DHT22;15243;50.726;7.080;2023-04-25T16:18:24;12.90;99.90
27900;DHT22;15243;50.726;7.080;2023-04-25T16:20:51;13.30;99.90
27900;DHT22;15243;50.726;7.080;2023-04-25T16:23:18;13.00;99.90
27900;DHT22;15243;50.726;7.080;2023-04-25T16:25:45;13.10;99.90
27900;DHT22;15243;50.726;7.080;2023-04-25T16:28:12;13.40;99.90
27900;DHT22;15243;50.726;7.080;2023-04-25T16:30:39;13.20;99.90
27900;DHT22;15243;50.726;7.080;2023-04-25T16:33:07;13.10;99.90
27900;DHT22;15243;50.726;7.080;2023-04-25T16:35:36;13.10;99.90
27900;DHT22;15243;50.726;7.080;2023-04-25T16:38:03;12.90;99.90
27900;DHT22;15243;50.726;7.080;2023-04-25T16:40:30;12.60;99.90
27900;DHT22;15243;50.726;7.080;2023-04-25T16:42:57;12.60;99.90
27900;DHT22;15243;50.726;7.080;2023-04-25T16:45:25;12.60;99.90
27900;DHT22;15243;50.726;7.080;2023-04-25T16:47:52;12.20;1.00
27900;DHT22;15243;50.726;7.080;2023-04-25T16:50:19;12.50;1.00
27900;DHT22;15243;50.726;7.080;2023-04-25T16:52:46;12.60;1.00
27900;DHT22;15243;50.726;7.080;2023-04-25T16:55:14;13.00;1.00
27900;DHT22;15243;50.726;7.080;2023-04-25T16:57:41;13.20;99.90
27900;DHT22;15243;50.726;7.080;2023-04-25T17:00:08;12.50;95.40
27900;DHT22;15243;50.726;7.080;2023-04-25T17:02:35;12.10;99.90
27900;DHT22;15243;50.726;7.080;2023-04-25T17:05:03;11.80;99.90
27900;DHT22;15243;50.726;7.080;2023-04-25T17:07:31;11.40;1.00
27900;DHT22;15243;50.726;7.080;2023-04-25T17:09:58;11.20;1.00
27900;DHT22;15243;50.726;7.080;2023-04-25T17:12:25;11.10;64.10
27900;DHT22;15243;50.726;7.080;2023-04-25T17:14:52;11.00;1.00
27900;DHT22;15243;50.726;7.080;2023-04-25T17:17:23;11.20;1.00
27900;DHT22;15243;50.726;7.080;2023-04-25T17:19:57;11.80;1.00
27900;DHT22;15243;50.726;7.080;2023-04-25T17:22:24;12.40;1.00
27900;DHT22;15243;50.726;7.080;2023-04-25T17:24:51;12.10;99.90
27900;DHT22;15243;50.726;7.080;2023-04-25T17:27:21;11.90;1.00
27900;DHT22;15243;50.726;7.080;2023-04-25T17:29:48;11.50;1.00
27900;DHT22;15243;50.726;7.080;2023-04-25T17:32:15;11.30;1.00
27900;DHT22;15243;50.726;7.080;2023-04-25T17:34:43;11.10;1.00
27900;DHT22;15243;50.726;7.080;2023-04-25T17:37:11;10.70;99.90
27900;DHT22;15243;50.726;7.080;2023-04-25T17:39:42;10.60;99.90
27900;DHT22;15243;50.726;7.080;2023-04-25T17:42:10;10.40;99.90
27900;DHT22;15243;50.726;7.080;2023-04-25T17:44:38;10.30;99.90
27900;DHT22;15243;50.726;7.080;2023-04-25T17:47:05;10.20;99.90
27900;DHT22;15243;50.726;7.080;2023-04-25T17:49:34;10.10;99.90
27900;DHT22;15243;50.726;7.080;2023-04-25T17:52:02;9.90;1.00
27900;DHT22;15243;50.726;7.080;2023-04-25T17:54:29;9.70;1.00
27900;DHT22;15243;50.726;7.080;2023-04-25T17:56:56;9.70;1.00
27900;DHT22;15243;50.726;7.080;2023-04-25T17:59:23;9.70;1.00
27900;DHT22;15243;50.726;7.080;2023-04-25T18:01:50;9.70;1.00
27900;DHT22;15243;50.726;7.080;2023-04-25T18:04:17;9.60;1.00
27900;DHT22;15243;50.726;7.080;2023-04-25T18:06:44;9.60;1.00
27900;DHT22;15243;50.726;7.080;2023-04-25T18:09:11;9.50;1.00
27900;DHT22;15243;50.726;7.080;2023-04-25T18:11:43;9.50;1.00
27900;DHT22;15243;50.726;7.080;2023-04-25T18:14:13;9.40;1.00
27900;DHT22;15243;50.726;7.080;2023-04-25T18:16:43;9.30;1.00
27900;DHT22;15243;50.726;7.080;2023-04-25T18:19:10;9.40;1.00
27900;DHT22;15243;50.726;7.080;2023-04-25T18:21:41;9.40;1.00
27900;DHT22;15243;50.726;7.080;2023-04-25T18:24:11;9.30;1.00
27900;DHT22;15243;50.726;7.080;2023-04-25T21:24:45;6.20;72.90
27900;DHT22;15243;50.726;7.080;2023-04-25T21:27:16;6.30;71.80
27900;DHT22;15243;50.726;7.080;2023-04-25T21:29:44;6.20;76.20
27900;DHT22;15243;50.726;7.080;2023-04-25T21:32:22;6.30;74.90
27900;DHT22;15243;50.726;7.080;2023-04-25T21:34:49;6.30;75.60
27900;DHT22;15243;50.726;7.080;2023-04-25T21:37:16;6.30;81.00
27900;DHT22;15243;50.726;7.080;2023-04-25T21:39:45;6.30;82.20
27900;DHT22;15243;50.726;7.080;2023-04-25T21:42:14;6.40;82.30
27900;DHT22;15243;50.726;7.080;2023-04-25T21:44:41;6.40;81.10
27900;DHT22;15243;50.726;7.080;2023-04-25T21:47:08;6.30;89.50
27900;DHT22;15243;50.726;7.080;2023-04-25T21:49:35;6.40;90.80
27900;DHT22;15243;50.726;7.080;2023-04-25T21:52:03;6.40;87.30
27900;DHT22;15243;50.726;7.080;2023-04-25T21:54:33;6.40;77.60
27900;DHT22;15243;50.726;7.080;2023-04-25T21:57:03;6.40;75.20
27900;DHT22;15243;50.726;7.080;2023-04-25T21:59:30;6.50;81.20
27900;DHT22;15243;50.726;7.080;2023-04-25T22:01:58;6.40;79.20
27900;DHT22;15243;50.726;7.080;2023-04-25T22:04:26;6.40;89.10
27900;DHT22;15243;50.726;7.080;2023-04-25T22:06:54;6.50;70.90
27900;DHT22;15243;50.726;7.080;2023-04-25T22:09:25;6.50;81.50
27900;DHT22;15243;50.726;7.080;2023-04-25T22:12:06;6.50;82.60
27900;DHT22;15243;50.726;7.080;2023-04-25T22:14:34;6.50;74.00
27900;DHT22;15243;50.726;7.080;2023-04-25T22:17:05;6.50;59.80
27900;DHT22;15243;50.726;7.080;2023-04-25T22:19:33;6.50;62.70
27900;DHT22;15243;50.726;7.080;2023-04-25T22:22:00;6.60;60.10
27900;DHT22;15243;50.726;7.080;2023-04-25T22:24:31;6.70;55.20